sensor_id;sensor_type;location;lat;lon;timestamp;pressure;altitude;pressure_sealevel;temperature;humidity
50867;BME280;36839;51.946;21.002;2023-07-16T00:01:14;99940.39;;;18.31;100.00
50867;BME280;36839;51.946;21.002;2023-07-16T00:03:56;99940.73;;;18.29;100.00
50867;BME280;36839;51.946;21.002;2023-07-16T00:06:24;99942.38;;;18.26;100.00
50867;BME280;36839;51.946;21.002;2023-07-16T00:08:55;99938.36;;;18.24;100.00
50867;BME280;36839;51.946;21.002;2023-07-16T00:11:27;99937.14;;;18.27;100.00
50867;BME280;36839;51.946;21.002;2023-07-16T00:13:57;99935.20;;;18.28;100.00
50867;BME280;36839;51.946;21.002;2023-07-16T00:16:24;99939.41;;;18.28;100.00
50867;BME280;36839;51.946;21.002;2023-07-16T00:18:52;99940.23;;;18.25;100.00
50867;BME280;36839;51.946;21.002;2023-07-16T00:21:20;99938.57;;;18.21;100.00
50867;BME280;36839;51.946;21.002;2023-07-16T00:23:49;99937.56;;;18.12;100.00
50867;BME280;36839;51.946;21.002;2023-07-16T00:26:26;99934.58;;;17.91;100.00
50867;BME280;36839;51.946;21.002;2023-07-16T00:28:56;99932.16;;;17.76;100.00
50867;BME280;36839;51.946;21.002;2023-07-16T00:31:27;99943.48;;;17.68;100.00
50867;BME280;36839;51.946;21.002;2023-07-16T00:33:56;99943.45;;;17.65;100.00
50867;BME280;36839;51.946;21.002;2023-07-16T00:36:24;99946.54;;;17.65;100.00
50867;BME280;36839;51.946;21.002;2023-07-16T00:39:02;99942.98;;;17.66;100.00
50867;BME280;36839;51.946;21.002;2023-07-16T00:41:44;99944.23;;;17.65;100.00
50867;BME280;36839;51.946;21.002;2023-07-16T00:44:11;99945.35;;;17.67;100.00
50867;BME280;36839;51.946;21.002;2023-07-16T00:46:38;99942.95;;;17.68;100.00
50867;BME280;36839;51.946;21.002;2023-07-16T00:49:06;99943.77;;;17.70;100.00
50867;BME280;36839;51.946;21.002;2023-07-16T00:51:36;99949.02;;;17.73;100.00
50867;BME280;36839;51.946;21.002;2023-07-16T00:54:08;99948.76;;;17.76;100.00
50867;BME280;36839;51.946;21.002;2023-07-16T00:56:37;99949.91;;;17.76;100.00
50867;BME280;36839;51.946;21.002;2023-07-16T00:59:14;99946.73;;;17.72;100.00
50867;BME280;36839;51.946;21.002;2023-07-16T01:01:42;99950.83;;;17.65;100.00
50867;BME280;36839;51.946;21.002;2023-07-16T01:04:24;99946.19;;;17.61;100.00
50867;BME280;36839;51.946;21.002;2023-07-16T01:06:56;99937.56;;;17.58;100.00
50867;BME280;36839;51.946;21.002;2023-07-16T01:09:35;99930.59;;;17.48;100.00
50867;BME280;36839;51.946;21.002;2023-07-16T01:12:14;99927.13;;;17.39;100.00
50867;BME280;36839;51.946;21.002;2023-07-16T01:14:43;99922.88;;;17.38;100.00
50867;BME280;36839;51.946;21.002;2023-07-16T01:17:15;99923.97;;;17.39;100.00
50867;BME280;36839;51.946;21.002;2023-07-16T01:19:46;99921.60;;;17.42;100.00
50867;BME280;36839;51.946;21.002;2023-07-16T01:25:40;99920.55;;;17.38;100.00
50867;BME280;36839;51.946;21.002;2023-07-16T01:31:23;99914.64;;;17.33;100.00
50867;BME280;36839;51.946;21.002;2023-07-16T01:33:52;99911.55;;;17.34;100.00
50867;BME280;36839;51.946;21.002;2023-07-16T01:36:29;99908.88;;;17.34;100.00
50867;BME280;36839;51.946;21.002;2023-07-16T01:38:58;99910.17;;;17.33;100.00
50867;BME280;36839;51.946;21.002;2023-07-16T01:41:25;99911.52;;;17.31;100.00
50867;BME280;36839;51.946;21.002;2023-07-16T01:43:52;99907.54;;;17.28;100.00
50867;BME280;36839;51.946;21.002;2023-07-16T01:46:20;99910.06;;;17.25;100.00
50867;BME280;36839;51.946;21.002;2023-07-16T01:48:48;99908.10;;;17.21;100.00
50867;BME280;36839;51.946;21.002;2023-07-16T01:51:16;99905.17;;;17.11;100.00
50867;BME280;36839;51.946;21.002;2023-07-16T01:53:52;99906.73;;;17.07;100.00
50867;BME280;36839;51.946;21.002;2023-07-16T01:56:20;99907.10;;;17.10;100.00
50867;BME280;36839;51.946;21.002;2023-07-16T01:58:50;99903.98;;;17.10;100.00
50867;BME280;36839;51.946;21.002;2023-07-16T02:01:26;99897.28;;;17.02;100.00
50867;BME280;36839;51.946;21.002;2023-07-16T02:03:55;99895.80;;;16.99;100.00
50867;BME280;36839;51.946;21.002;2023-07-16T02:06:28;99894.61;;;16.98;100.00
50867;BME280;36839;51.946;21.002;2023-07-16T02:09:00;99898.30;;;17.00;100.00
50867;BME280;36839;51.946;21.002;2023-07-16T02:11:28;99892.16;;;17.02;100.00
50867;BME280;36839;51.946;21.002;2023-07-16T02:13:55;99888.77;;;16.99;100.00
50867;BME280;36839;51.946;21.002;2023-07-16T02:16:23;99880.93;;;16.94;100.00
50867;BME280;36839;51.946;21.002;2023-07-16T02:18:50;99879.84;;;16.90;100.00
50867;BME280;36839;51.946;21.002;2023-07-16T02:21:17;99882.90;;;16.92;100.00
50867;BME280;36839;51.946;21.002;2023-07-16T02:23:47;99883.94;;;16.97;100.00
50867;BME280;36839;51.946;21.002;2023-07-16T02:26:18;99877.64;;;17.02;100.00
50867;BME280;36839;51.946;21.002;2023-07-16T02:28:45;99877.48;;;17.06;100.00
50867;BME280;36839;51.946;21.002;2023-07-16T02:31:15;99880.45;;;17.09;100.00
50867;BME280;36839;51.946;21.002;2023-07-16T02:33:57;99886.70;;;17.15;100.00
50867;BME280;36839;51.946;21.002;2023-07-16T02:36:33;99887.19;;;17.22;100.00
50867;BME280;36839;51.946;21.002;2023-07-16T02:39:01;99883.54;;;17.27;100.00
50867;BME280;36839;51.946;21.002;2023-07-16T02:41:41;99881.73;;;17.27;100.00
50867;BME280;36839;51.946;21.002;2023-07-16T02:44:10;99885.31;;;17.27;100.00
50867;BME280;36839;51.946;21.002;2023-07-16T02:46:37;99894.05;;;17.28;100.00
50867;BME280;36839;51.946;21.002;2023-07-16T02:49:06;99892.77;;;17.28;100.00
50867;BME280;36839;51.946;21.002;2023-07-16T02:51:33;99896.19;;;17.29;100.00
50867;BME280;36839;51.946;21.002;2023-07-16T02:54:04;99896.61;;;17.28;100.00
50867;BME280;36839;51.946;21.002;2023-07-16T02:56:31;99898.05;;;17.27;100.00
50867;BME280;36839;51.946;21.002;2023-07-16T02:58:59;99894.90;;;17.26;100.00
50867;BME280;36839;51.946;21.002;2023-07-16T03:01:30;99893.52;;;17.24;100.00
50867;BME280;36839;51.946;21.002;2023-07-16T03:03:57;99884.75;;;17.21;100.00
50867;BME280;36839;51.946;21.002;2023-07-16T03:06:29;99885.35;;;17.18;100.00
50867;BME280;36839;51.946;21.002;2023-07-16T03:09:03;99881.77;;;17.12;100.00
50867;BME280;36839;51.946;21.002;2023-07-16T03:11:39;99881.89;;;17.08;100.00
50867;BME280;36839;51.946;21.002;2023-07-16T03:14:08;99887.19;;;17.12;100.00
50867;BME280;36839;51.946;21.002;2023-07-16T03:16:37;99889.26;;;17.20;100.00
50867;BME280;36839;51.946;21.002;2023-07-16T03:19:07;99892.98;;;17.26;100.00
50867;BME280;36839;51.946;21.002;2023-07-16T03:21:35;99892.94;;;17.33;100.00
50867;BME280;36839;51.946;21.002;2023-07-16T03:24:04;99894.11;;;17.41;100.00
50867;BME280;36839;51.946;21.002;2023-07-16T03:26:39;99892.77;;;17.51;100.00
50867;BME280;36839;51.946;21.002;2023-07-16T03:29:08;99892.56;;;17.63;100.00
50867;BME280;36839;51.946;21.002;2023-07-16T03:31:41;99898.92;;;17.75;100.00
50867;BME280;36839;51.946;21.002;2023-07-16T03:34:12;99900.23;;;17.86;100.00
50867;BME280;36839;51.946;21.002;2023-07-16T03:36:41;99897.32;;;17.98;100.00
50867;BME280;36839;51.946;21.002;2023-07-16T03:39:09;99899.92;;;18.10;100.00
50867;BME280;36839;51.946;21.002;2023-07-16T03:41:37;99906.07;;;18.20;100.00
50867;BME280;36839;51.946;21.002;2023-07-16T03:44:08;99903.04;;;18.32;100.00
50867;BME280;36839;51.946;21.002;2023-07-16T03:46:40;99905.77;;;18.45;100.00
50867;BME280;36839;51.946;21.002;2023-07-16T03:49:08;99904.14;;;18.57;100.00
50867;BME280;36839;51.946;21.002;2023-07-16T03:51:39;99905.06;;;18.70;100.00
50867;BME280;36839;51.946;21.002;2023-07-16T03:54:08;99915.34;;;18.82;100.00
50867;BME280;36839;51.946;21.002;2023-07-16T03:56:36;99915.24;;;18.93;100.00
50867;BME280;36839;51.946;21.002;2023-07-16T03:59:17;99916.36;;;19.02;100.00
50867;BME280;36839;51.946;21.002;2023-07-16T04:01:47;99916.30;;;19.15;100.00
50867;BME280;36839;51.946;21.002;2023-07-16T04:04:19;99914.56;;;19.28;100.00
50867;BME280;36839;51.946;21.002;2023-07-16T04:06:47;99911.00;;;19.37;100.00
50867;BME280;36839;51.946;21.002;2023-07-16T04:09:17;99915.40;;;19.45;100.00
50867;BME280;36839;51.946;21.002;2023-07-16T04:11:44;99914.67;;;19.54;100.00
50867;BME280;36839;51.946;21.002;2023-07-16T04:14:14;99913.02;;;19.64;100.00
50867;BME280;36839;51.946;21.002;2023-07-16T04:16:42;99912.09;;;19.73;100.00
50867;BME280;36839;51.946;21.002;2023-07-16T04:19:11;99915.75;;;19.82;100.00
50867;BME280;36839;51.946;21.002;2023-07-16T04:21:40;99920.44;;;19.91;100.00
50867;BME280;36839;51.946;21.002;2023-07-16T04:24:11;99920.23;;;20.01;100.00
50867;BME280;36839;51.946;21.002;2023-07-16T04:26:41;99920.14;;;20.10;100.00
50867;BME280;36839;51.946;21.002;2023-07-16T04:29:08;99920.07;;;20.19;100.00
50867;BME280;36839;51.946;21.002;2023-07-16T04:31:35;99923.77;;;20.28;100.00
50867;BME280;36839;51.946;21.002;2023-07-16T04:34:05;99920.40;;;20.34;100.00
50867;BME280;36839;51.946;21.002;2023-07-16T04:36:42;99924.89;;;20.43;100.00
50867;BME280;36839;51.946;21.002;2023-07-16T04:39:10;99926.15;;;20.52;100.00
50867;BME280;36839;51.946;21.002;2023-07-16T04:41:41;99929.43;;;20.61;100.00
50867;BME280;36839;51.946;21.002;2023-07-16T04:44:09;99926.30;;;20.69;100.00
50867;BME280;36839;51.946;21.002;2023-07-16T04:46:38;99931.91;;;20.78;100.00
50867;BME280;36839;51.946;21.002;2023-07-16T04:49:05;99931.52;;;20.87;100.00
50867;BME280;36839;51.946;21.002;2023-07-16T04:51:35;99922.59;;;20.95;100.00
50867;BME280;36839;51.946;21.002;2023-07-16T04:54:06;99919.30;;;21.04;100.00
50867;BME280;36839;51.946;21.002;2023-07-16T04:56:42;99921.04;;;21.15;100.00
50867;BME280;36839;51.946;21.002;2023-07-16T04:59:17;99917.50;;;21.28;100.00
50867;BME280;36839;51.946;21.002;2023-07-16T05:01:47;99919.86;;;21.41;100.00
50867;BME280;36839;51.946;21.002;2023-07-16T05:04:15;99925.66;;;21.52;100.00
50867;BME280;36839;51.946;21.002;2023-07-16T05:06:43;99921.94;;;21.60;100.00
50867;BME280;36839;51.946;21.002;2023-07-16T05:09:11;99923.83;;;21.74;100.00
50867;BME280;36839;51.946;21.002;2023-07-16T05:11:39;99922.77;;;21.86;100.00
50867;BME280;36839;51.946;21.002;2023-07-16T05:14:09;99922.96;;;22.00;100.00
50867;BME280;36839;51.946;21.002;2023-07-16T05:16:37;99923.95;;;22.13;100.00
50867;BME280;36839;51.946;21.002;2023-07-16T05:19:04;99922.02;;;22.23;100.00
50867;BME280;36839;51.946;21.002;2023-07-16T05:21:38;99917.01;;;22.33;100.00
50867;BME280;36839;51.946;21.002;2023-07-16T05:24:07;99920.35;;;22.42;100.00
50867;BME280;36839;51.946;21.002;2023-07-16T05:26:35;99922.64;;;22.55;100.00
50867;BME280;36839;51.946;21.002;2023-07-16T05:29:06;99917.48;;;22.67;100.00
50867;BME280;36839;51.946;21.002;2023-07-16T05:31:38;99914.00;;;22.79;100.00
50867;BME280;36839;51.946;21.002;2023-07-16T05:34:06;99910.52;;;22.92;100.00
50867;BME280;36839;51.946;21.002;2023-07-16T05:36:34;99909.17;;;23.05;100.00
50867;BME280;36839;51.946;21.002;2023-07-16T05:39:02;99909.81;;;23.17;100.00
50867;BME280;36839;51.946;21.002;2023-07-16T05:41:33;99917.23;;;23.30;100.00
50867;BME280;36839;51.946;21.002;2023-07-16T05:44:00;99918.47;;;23.44;100.00
50867;BME280;36839;51.946;21.002;2023-07-16T05:46:41;99914.37;;;23.59;100.00
50867;BME280;36839;51.946;21.002;2023-07-16T05:49:10;99911.38;;;23.75;100.00
50867;BME280;36839;51.946;21.002;2023-07-16T05:51:39;99907.86;;;23.86;100.00
50867;BME280;36839;51.946;21.002;2023-07-16T05:54:08;99912.53;;;24.01;100.00
50867;BME280;36839;51.946;21.002;2023-07-16T05:56:36;99910.05;;;24.16;100.00
50867;BME280;36839;51.946;21.002;2023-07-16T05:59:06;99903.00;;;24.29;100.00
50867;BME280;36839;51.946;21.002;2023-07-16T06:01:42;99902.83;;;24.38;100.00
50867;BME280;36839;51.946;21.002;2023-07-16T06:04:10;99907.27;;;24.50;100.00
50867;BME280;36839;51.946;21.002;2023-07-16T06:06:49;99912.30;;;24.59;100.00
50867;BME280;36839;51.946;21.002;2023-07-16T06:09:17;99909.17;;;24.68;100.00
50867;BME280;36839;51.946;21.002;2023-07-16T06:11:50;99917.56;;;24.76;100.00
50867;BME280;36839;51.946;21.002;2023-07-16T06:14:21;99915.34;;;24.87;100.00
50867;BME280;36839;51.946;21.002;2023-07-16T06:16:50;99916.59;;;25.01;100.00
50867;BME280;36839;51.946;21.002;2023-07-16T06:19:24;99918.02;;;25.16;99.57
50867;BME280;36839;51.946;21.002;2023-07-16T06:21:55;99916.25;;;25.30;98.69
50867;BME280;36839;51.946;21.002;2023-07-16T06:24:24;99921.14;;;25.42;97.87
50867;BME280;36839;51.946;21.002;2023-07-16T06:26:56;99919.70;;;25.52;96.69
50867;BME280;36839;51.946;21.002;2023-07-16T06:29:24;99927.33;;;25.63;96.37
50867;BME280;36839;51.946;21.002;2023-07-16T06:32:03;99924.76;;;25.77;95.04
50867;BME280;36839;51.946;21.002;2023-07-16T06:34:43;99919.86;;;25.89;93.89
50867;BME280;36839;51.946;21.002;2023-07-16T06:37:12;99925.70;;;26.02;94.06
50867;BME280;36839;51.946;21.002;2023-07-16T06:39:50;99926.08;;;26.17;93.30
50867;BME280;36839;51.946;21.002;2023-07-16T06:42:23;99929.39;;;26.29;92.45
50867;BME280;36839;51.946;21.002;2023-07-16T06:44:51;99928.40;;;26.42;92.22
50867;BME280;36839;51.946;21.002;2023-07-16T06:47:18;99936.03;;;26.51;89.95
50867;BME280;36839;51.946;21.002;2023-07-16T06:49:47;99938.64;;;26.60;89.09
50867;BME280;36839;51.946;21.002;2023-07-16T06:52:23;99944.55;;;26.65;87.56
50867;BME280;36839;51.946;21.002;2023-07-16T06:54:59;99943.41;;;26.71;88.02
50867;BME280;36839;51.946;21.002;2023-07-16T06:57:26;99948.27;;;26.78;88.24
50867;BME280;36839;51.946;21.002;2023-07-16T06:59:54;99951.69;;;26.87;87.93
50867;BME280;36839;51.946;21.002;2023-07-16T07:02:23;99956.80;;;26.94;86.51
50867;BME280;36839;51.946;21.002;2023-07-16T07:05:00;99953.61;;;26.99;85.95
50867;BME280;36839;51.946;21.002;2023-07-16T07:07:36;99957.81;;;27.10;85.60
50867;BME280;36839;51.946;21.002;2023-07-16T07:10:04;99959.23;;;27.21;85.71
50867;BME280;36839;51.946;21.002;2023-07-16T07:12:34;99960.95;;;27.30;84.51
50867;BME280;36839;51.946;21.002;2023-07-16T07:15:07;99965.17;;;27.40;84.64
50867;BME280;36839;51.946;21.002;2023-07-16T07:17:36;99961.65;;;27.53;83.71
50867;BME280;36839;51.946;21.002;2023-07-16T07:20:17;99958.05;;;27.66;83.98
50867;BME280;36839;51.946;21.002;2023-07-16T07:22:48;99954.78;;;27.81;82.53
50867;BME280;36839;51.946;21.002;2023-07-16T07:25:16;99949.08;;;27.98;80.05
50867;BME280;36839;51.946;21.002;2023-07-16T07:27:52;99954.70;;;28.15;76.12
50867;BME280;36839;51.946;21.002;2023-07-16T07:30:28;99954.30;;;28.27;75.06
50867;BME280;36839;51.946;21.002;2023-07-16T07:32:58;99959.00;;;28.35;73.76
50867;BME280;36839;51.946;21.002;2023-07-16T07:35:28;99958.71;;;28.43;74.06
50867;BME280;36839;51.946;21.002;2023-07-16T07:38:09;99958.66;;;28.51;72.75
50867;BME280;36839;51.946;21.002;2023-07-16T07:40:42;99959.35;;;28.58;70.61
50867;BME280;36839;51.946;21.002;2023-07-16T07:43:13;99953.11;;;28.61;69.51
50867;BME280;36839;51.946;21.002;2023-07-16T07:45:44;99950.89;;;28.71;70.73
50867;BME280;36839;51.946;21.002;2023-07-16T07:48:13;99954.11;;;28.84;70.62
50867;BME280;36839;51.946;21.002;2023-07-16T07:50:53;99942.98;;;29.02;69.86
50867;BME280;36839;51.946;21.002;2023-07-16T07:53:20;99934.33;;;29.17;67.67
50867;BME280;36839;51.946;21.002;2023-07-16T07:55:48;99929.39;;;29.31;66.56
50867;BME280;36839;51.946;21.002;2023-07-16T07:58:17;99928.66;;;29.43;64.78
50867;BME280;36839;51.946;21.002;2023-07-16T08:00:45;99933.16;;;29.48;63.59
50867;BME280;36839;51.946;21.002;2023-07-16T08:03:26;99932.77;;;29.57;63.46
50867;BME280;36839;51.946;21.002;2023-07-16T08:05:57;99929.42;;;29.69;63.78
50867;BME280;36839;51.946;21.002;2023-07-16T08:08:26;99929.51;;;29.79;61.89
50867;BME280;36839;51.946;21.002;2023-07-16T08:10:55;99931.38;;;29.84;61.54
50867;BME280;36839;51.946;21.002;2023-07-16T08:13:26;99932.52;;;29.90;59.39
50867;BME280;36839;51.946;21.002;2023-07-16T08:15:53;99934.61;;;30.03;61.06
50867;BME280;36839;51.946;21.002;2023-07-16T08:18:20;99934.69;;;30.19;59.24
50867;BME280;36839;51.946;21.002;2023-07-16T08:20:48;99926.61;;;30.27;58.51
50867;BME280;36839;51.946;21.002;2023-07-16T08:23:19;99922.52;;;30.36;57.49
50867;BME280;36839;51.946;21.002;2023-07-16T08:25:49;99915.57;;;30.42;56.18
50867;BME280;36839;51.946;21.002;2023-07-16T08:28:26;99916.03;;;30.50;55.53
50867;BME280;36839;51.946;21.002;2023-07-16T08:31:04;99913.39;;;30.57;53.05
50867;BME280;36839;51.946;21.002;2023-07-16T08:33:31;99913.53;;;30.67;52.82
50867;BME280;36839;51.946;21.002;2023-07-16T08:36:02;99917.41;;;30.76;52.60
50867;BME280;36839;51.946;21.002;2023-07-16T08:38:34;99921.48;;;30.92;53.24
50867;BME280;36839;51.946;21.002;2023-07-16T08:41:02;99915.05;;;31.05;51.11
50867;BME280;36839;51.946;21.002;2023-07-16T08:43:33;99911.89;;;31.13;50.60
50867;BME280;36839;51.946;21.002;2023-07-16T08:46:05;99914.88;;;31.21;49.63
50867;BME280;36839;51.946;21.002;2023-07-16T08:48:32;99914.18;;;31.30;49.87
50867;BME280;36839;51.946;21.002;2023-07-16T08:51:02;99908.59;;;31.35;49.07
50867;BME280;36839;51.946;21.002;2023-07-16T08:53:30;99915.60;;;31.47;47.92
50867;BME280;36839;51.946;21.002;2023-07-16T08:55:58;99913.89;;;31.45;46.08
50867;BME280;36839;51.946;21.002;2023-07-16T08:58:30;99914.28;;;31.47;46.76
50867;BME280;36839;51.946;21.002;2023-07-16T09:01:11;99918.05;;;31.56;47.07
50867;BME280;36839;51.946;21.002;2023-07-16T09:03:42;99910.55;;;31.66;45.38
50867;BME280;36839;51.946;21.002;2023-07-16T09:06:12;99905.67;;;31.75;44.52
50867;BME280;36839;51.946;21.002;2023-07-16T09:08:42;99905.58;;;31.77;42.92
50867;BME280;36839;51.946;21.002;2023-07-16T09:11:13;99907.90;;;31.69;43.50
50867;BME280;36839;51.946;21.002;2023-07-16T09:13:45;99910.13;;;31.78;44.55
50867;BME280;36839;51.946;21.002;2023-07-16T09:16:20;99905.09;;;31.93;43.96
50867;BME280;36839;51.946;21.002;2023-07-16T09:18:52;99898.67;;;31.99;42.44
50867;BME280;36839;51.946;21.002;2023-07-16T09:21:27;99900.73;;;32.04;43.24
50867;BME280;36839;51.946;21.002;2023-07-16T09:23:58;99908.89;;;32.13;43.21
50867;BME280;36839;51.946;21.002;2023-07-16T09:26:25;99904.40;;;32.13;42.57
50867;BME280;36839;51.946;21.002;2023-07-16T09:28:54;99906.05;;;32.19;43.51
50867;BME280;36839;51.946;21.002;2023-07-16T09:31:24;99907.59;;;32.20;42.58
50867;BME280;36839;51.946;21.002;2023-07-16T09:33:59;99901.95;;;32.29;42.89
50867;BME280;36839;51.946;21.002;2023-07-16T09:36:27;99899.41;;;32.44;43.15
50867;BME280;36839;51.946;21.002;2023-07-16T09:38:59;99896.94;;;32.46;41.79
50867;BME280;36839;51.946;21.002;2023-07-16T09:41:28;99897.14;;;32.49;41.89
50867;BME280;36839;51.946;21.002;2023-07-16T09:43:58;99891.59;;;32.56;42.14
50867;BME280;36839;51.946;21.002;2023-07-16T09:46:35;99889.33;;;32.78;41.91
50867;BME280;36839;51.946;21.002;2023-07-16T09:49:08;99888.31;;;32.88;40.29
50867;BME280;36839;51.946;21.002;2023-07-16T09:51:39;99878.41;;;32.89;39.06
50867;BME280;36839;51.946;21.002;2023-07-16T09:54:08;99871.38;;;33.00;39.74
50867;BME280;36839;51.946;21.002;2023-07-16T09:56:46;99870.48;;;33.21;39.55
50867;BME280;36839;51.946;21.002;2023-07-16T09:59:17;99871.70;;;33.38;39.17
50867;BME280;36839;51.946;21.002;2023-07-16T10:01:56;99868.24;;;33.59;38.69
50867;BME280;36839;51.946;21.002;2023-07-16T10:04:38;99868.85;;;33.80;38.64
50867;BME280;36839;51.946;21.002;2023-07-16T10:07:27;99877.70;;;33.94;37.42
50867;BME280;36839;51.946;21.002;2023-07-16T10:10:19;99871.84;;;34.01;36.88
50867;BME280;36839;51.946;21.002;2023-07-16T10:12:57;99868.89;;;34.01;36.65
50867;BME280;36839;51.946;21.002;2023-07-16T10:15:28;99862.61;;;34.08;37.30
50867;BME280;36839;51.946;21.002;2023-07-16T10:17:57;99864.13;;;34.14;37.48
50867;BME280;36839;51.946;21.002;2023-07-16T10:23:18;99860.86;;;33.97;38.03
50867;BME280;36839;51.946;21.002;2023-07-16T10:25:59;99858.32;;;34.06;38.62
50867;BME280;36839;51.946;21.002;2023-07-16T10:28:36;99853.78;;;34.20;38.34
50867;BME280;36839;51.946;21.002;2023-07-16T10:31:23;99853.83;;;34.13;37.84
50867;BME280;36839;51.946;21.002;2023-07-16T10:34:16;99858.02;;;33.82;37.16
50867;BME280;36839;51.946;21.002;2023-07-16T10:36:49;99858.05;;;33.67;37.69
50867;BME280;36839;51.946;21.002;2023-07-16T10:39:21;99854.25;;;33.64;38.19
50867;BME280;36839;51.946;21.002;2023-07-16T10:41:48;99852.97;;;33.57;39.00
50867;BME280;36839;51.946;21.002;2023-07-16T10:44:20;99856.38;;;33.41;39.36
50867;BME280;36839;51.946;21.002;2023-07-16T10:46:49;99860.88;;;33.29;39.93
50867;BME280;36839;51.946;21.002;2023-07-16T10:49:27;99856.48;;;33.34;40.61
50867;BME280;36839;51.946;21.002;2023-07-16T10:52:00;99857.21;;;33.44;41.13
50867;BME280;36839;51.946;21.002;2023-07-16T10:54:31;99861.69;;;33.41;41.09
50867;BME280;36839;51.946;21.002;2023-07-16T10:56:58;99858.75;;;33.40;41.68
50867;BME280;36839;51.946;21.002;2023-07-16T10:59:42;99863.77;;;33.48;41.35
50867;BME280;36839;51.946;21.002;2023-07-16T11:02:15;99862.73;;;33.57;41.32
50867;BME280;36839;51.946;21.002;2023-07-16T11:04:46;99864.85;;;33.56;41.50
50867;BME280;36839;51.946;21.002;2023-07-16T11:07:21;99861.57;;;33.57;41.71
50867;BME280;36839;51.946;21.002;2023-07-16T11:10:08;99861.61;;;33.73;41.76
50867;BME280;36839;51.946;21.002;2023-07-16T11:12:35;99855.92;;;33.75;42.01
50867;BME280;36839;51.946;21.002;2023-07-16T11:15:03;99857.38;;;33.95;41.58
50867;BME280;36839;51.946;21.002;2023-07-16T11:17:42;99859.69;;;34.19;41.49
50867;BME280;36839;51.946;21.002;2023-07-16T11:20:10;99863.07;;;34.27;41.07
50867;BME280;36839;51.946;21.002;2023-07-16T11:22:42;99868.09;;;34.38;40.87
50867;BME280;36839;51.946;21.002;2023-07-16T11:25:13;99868.13;;;34.45;40.48
50867;BME280;36839;51.946;21.002;2023-07-16T11:27:54;99877.45;;;34.37;40.45
50867;BME280;36839;51.946;21.002;2023-07-16T11:30:33;99877.29;;;34.24;40.80
50867;BME280;36839;51.946;21.002;2023-07-16T11:33:03;99875.81;;;34.36;40.61
50867;BME280;36839;51.946;21.002;2023-07-16T11:35:39;99873.98;;;34.33;39.99
50867;BME280;36839;51.946;21.002;2023-07-16T11:38:21;99873.84;;;34.36;40.63
50867;BME280;36839;51.946;21.002;2023-07-16T11:40:48;99876.40;;;34.52;40.50
50867;BME280;36839;51.946;21.002;2023-07-16T11:43:19;99880.90;;;34.72;39.86
50867;BME280;36839;51.946;21.002;2023-07-16T11:45:56;99879.58;;;34.71;39.73
50867;BME280;36839;51.946;21.002;2023-07-16T11:48:23;99877.04;;;34.79;39.47
50867;BME280;36839;51.946;21.002;2023-07-16T11:50:52;99879.23;;;34.80;39.43
50867;BME280;36839;51.946;21.002;2023-07-16T11:53:19;99888.16;;;34.89;38.87
50867;BME280;36839;51.946;21.002;2023-07-16T11:55:48;99887.53;;;34.56;38.34
50867;BME280;36839;51.946;21.002;2023-07-16T11:58:18;99882.15;;;34.67;38.86
50867;BME280;36839;51.946;21.002;2023-07-16T12:00:50;99880.88;;;34.72;38.63
50867;BME280;36839;51.946;21.002;2023-07-16T12:03:40;99886.20;;;34.83;38.63
50867;BME280;36839;51.946;21.002;2023-07-16T12:06:09;99889.35;;;34.71;37.91
50867;BME280;36839;51.946;21.002;2023-07-16T12:08:36;99884.83;;;34.69;38.41
50867;BME280;36839;51.946;21.002;2023-07-16T12:11:05;99883.65;;;34.88;37.85
50867;BME280;36839;51.946;21.002;2023-07-16T12:13:32;99888.67;;;35.06;37.38
50867;BME280;36839;51.946;21.002;2023-07-16T12:16:01;99884.67;;;35.19;37.32
50867;BME280;36839;51.946;21.002;2023-07-16T12:18:39;99887.48;;;35.40;36.26
50867;BME280;36839;51.946;21.002;2023-07-16T12:21:10;99889.83;;;35.37;36.13
50867;BME280;36839;51.946;21.002;2023-07-16T12:23:40;99884.78;;;35.39;36.12
50867;BME280;36839;51.946;21.002;2023-07-16T12:26:13;99879.53;;;35.42;35.77
50867;BME280;36839;51.946;21.002;2023-07-16T12:28:51;99884.91;;;35.54;36.04
50867;BME280;36839;51.946;21.002;2023-07-16T12:31:19;99882.94;;;35.57;35.59
50867;BME280;36839;51.946;21.002;2023-07-16T12:33:52;99883.27;;;35.60;34.92
50867;BME280;36839;51.946;21.002;2023-07-16T12:36:26;99884.98;;;35.51;34.68
50867;BME280;36839;51.946;21.002;2023-07-16T12:38:54;99884.62;;;35.49;34.42
50867;BME280;36839;51.946;21.002;2023-07-16T12:41:22;99883.35;;;35.57;34.89
50867;BME280;36839;51.946;21.002;2023-07-16T12:43:52;99880.95;;;35.61;34.73
50867;BME280;36839;51.946;21.002;2023-07-16T12:46:20;99882.90;;;35.55;34.28
50867;BME280;36839;51.946;21.002;2023-07-16T12:48:48;99881.09;;;35.39;34.41
50867;BME280;36839;51.946;21.002;2023-07-16T12:51:15;99891.77;;;35.31;34.26
50867;BME280;36839;51.946;21.002;2023-07-16T12:53:48;99885.38;;;35.38;34.13
50867;BME280;36839;51.946;21.002;2023-07-16T12:56:17;99880.59;;;35.39;34.43
50867;BME280;36839;51.946;21.002;2023-07-16T12:58:46;99880.49;;;35.22;34.72
50867;BME280;36839;51.946;21.002;2023-07-16T13:01:14;99894.48;;;34.88;34.57
50867;BME280;36839;51.946;21.002;2023-07-16T13:03:52;99892.17;;;34.70;34.88
50867;BME280;36839;51.946;21.002;2023-07-16T13:06:20;99895.92;;;34.63;34.77
50867;BME280;36839;51.946;21.002;2023-07-16T13:08:48;99894.30;;;34.42;35.03
50867;BME280;36839;51.946;21.002;2023-07-16T13:11:27;99885.51;;;34.30;34.82
50867;BME280;36839;51.946;21.002;2023-07-16T13:13:54;99886.90;;;34.59;34.88
50867;BME280;36839;51.946;21.002;2023-07-16T13:16:24;99891.91;;;34.90;34.79